Погода Порламарна неделю

Сукре, Венесуэла

04 - 10 марта
  • 04марта
    Сегодня
    +25°
    +33°
    Ясно и безоблачно
    ВремяПогодаТемператураВлажностьДавлениеВетер, м/сВероятность осадков
    02:00Ясно и безоблачно+26°C82 %759 мм5.0 м/с2 %
    05:00Ясно и безоблачно+26°C83 %758 мм5.0 м/с2 %
    08:00Практически безоблачно+27°C78 %760 мм5.7 м/с2 %
    11:00Практически безоблачно+31°C71 %760 мм6.2 м/с2 %
    14:00Ясно и безоблачно+32°C71 %758 мм6.8 м/с8 %
    17:00Ясно и безоблачно+29°C76 %757 мм6.8 м/с9 %
    20:00Практически безоблачно+28°C82 %757 мм7.2 м/с3 %
    23:00Ясно и безоблачно+26°C83 %759 мм6.9 м/с12 %
  • 05марта
    Вторник
    +25°
    +33°
    Ясно и безоблачно
    ВремяПогодаТемператураВлажностьДавлениеВетер, м/сВероятность осадков
    02:00Практически безоблачно+25°C88 %757 мм6.8 м/с23 %
    05:00Практически безоблачно+25°C89 %757 мм6.3 м/с23 %
    08:00Практически безоблачно+27°C83 %759 мм6.7 м/с18 %
    11:00Ясно и безоблачно+30°C75 %759 мм6.8 м/с13 %
    14:00Ясно и безоблачно+32°C75 %757 мм7.6 м/с7 %
    17:00Ясно и безоблачно+29°C79 %756 мм8.1 м/с6 %
    20:00Ясно и безоблачно+28°C84 %757 мм8.2 м/с3 %
    23:00Ясно и безоблачно+26°C84 %758 мм7.7 м/с8 %
  • 06марта
    Среда
    +25°
    +33°
    Ясно и безоблачно
    ВремяПогодаТемператураВлажностьДавлениеВетер, м/сВероятность осадков
    02:00Ясно и безоблачно+26°C86 %757 мм7.6 м/с14 %
    05:00Ясно и безоблачно+26°C87 %757 мм6.8 м/с15 %
    08:00Ясно и безоблачно+27°C83 %758 мм6.9 м/с8 %
    11:00Ясно и безоблачно+31°C73 %759 мм6.9 м/с3 %
    14:00Ясно и безоблачно+33°C74 %757 мм8.0 м/с2 %
    17:00Небольшая облачность+29°C81 %756 мм8.1 м/с2 %
    20:00Ясно и безоблачно+28°C86 %757 мм8.0 м/с2 %
    23:00Ясно и безоблачно+27°C85 %759 мм8.5 м/с2 %
  • 07марта
    Четверг
    +25°
    +33°
    Ясно и безоблачно
    ВремяПогодаТемператураВлажностьДавлениеВетер, м/сВероятность осадков
    02:00Ясно и безоблачно+26°C82 %757 мм7.1 м/с2 %
    05:00Ясно и безоблачно+26°C82 %757 мм7.0 м/с3 %
    08:00Небольшая облачность+28°C79 %759 мм7.3 м/с2 %
    11:00Ясно и безоблачно+32°C75 %759 мм6.7 м/с3 %
    14:00Ясно и безоблачно+32°C78 %757 мм8.0 м/с9 %
    17:00Практически безоблачно+29°C82 %756 мм8.4 м/с5 %
    20:00Облачно с прояснениями+27°C90 %757 мм7.6 м/с3 %
    23:00Облачно с прояснениями+27°C87 %759 мм7.9 м/с4 %
Мы используем cookies
Соглашаюсь